sensor_id;sensor_type;location;lat;lon;timestamp;P1;durP1;ratioP1;P2;durP2;ratioP2
57313;SDS011;53202;50.976;18.216;2024-01-07T00:00:45;33.10;;;16.80;;
57313;SDS011;53202;50.976;18.216;2024-01-07T00:01:46;29.20;;;17.90;;
57313;SDS011;53202;50.976;18.216;2024-01-07T00:02:49;30.00;;;16.10;;
57313;SDS011;53202;50.976;18.216;2024-01-07T00:03:51;34.00;;;18.00;;
57313;SDS011;53202;50.976;18.216;2024-01-07T00:04:52;28.20;;;17.50;;
57313;SDS011;53202;50.976;18.216;2024-01-07T00:05:53;23.80;;;15.00;;
57313;SDS011;53202;50.976;18.216;2024-01-07T00:06:54;26.60;;;17.30;;
57313;SDS011;53202;50.976;18.216;2024-01-07T00:07:55;24.20;;;15.50;;
57313;SDS011;53202;50.976;18.216;2024-01-07T00:08:55;25.70;;;15.70;;
57313;SDS011;53202;50.976;18.216;2024-01-07T00:09:56;26.10;;;14.60;;
57313;SDS011;53202;50.976;18.216;2024-01-07T00:10:57;26.80;;;14.10;;
57313;SDS011;53202;50.976;18.216;2024-01-07T00:11:58;24.70;;;14.90;;
57313;SDS011;53202;50.976;18.216;2024-01-07T00:12:59;22.40;;;14.30;;
57313;SDS011;53202;50.976;18.216;2024-01-07T00:14:01;22.20;;;14.00;;
57313;SDS011;53202;50.976;18.216;2024-01-07T00:15:02;34.20;;;13.60;;
57313;SDS011;53202;50.976;18.216;2024-01-07T00:16:03;24.00;;;14.40;;
57313;SDS011;53202;50.976;18.216;2024-01-07T00:17:04;23.30;;;13.00;;
57313;SDS011;53202;50.976;18.216;2024-01-07T00:18:05;20.70;;;13.00;;
57313;SDS011;53202;50.976;18.216;2024-01-07T00:19:06;24.30;;;14.60;;
57313;SDS011;53202;50.976;18.216;2024-01-07T00:20:07;21.00;;;12.50;;
57313;SDS011;53202;50.976;18.216;2024-01-07T00:21:08;25.70;;;14.30;;
57313;SDS011;53202;50.976;18.216;2024-01-07T00:22:09;20.70;;;13.70;;
57313;SDS011;53202;50.976;18.216;2024-01-07T00:23:10;25.20;;;13.90;;
57313;SDS011;53202;50.976;18.216;2024-01-07T00:24:11;21.90;;;13.50;;
57313;SDS011;53202;50.976;18.216;2024-01-07T00:25:12;19.10;;;12.30;;
57313;SDS011;53202;50.976;18.216;2024-01-07T00:26:13;19.20;;;12.10;;
57313;SDS011;53202;50.976;18.216;2024-01-07T00:27:14;22.10;;;12.50;;
57313;SDS011;53202;50.976;18.216;2024-01-07T00:28:15;16.80;;;10.90;;
57313;SDS011;53202;50.976;18.216;2024-01-07T00:29:16;26.30;;;13.40;;
57313;SDS011;53202;50.976;18.216;2024-01-07T00:30:17;26.00;;;12.90;;
57313;SDS011;53202;50.976;18.216;2024-01-07T00:31:18;23.30;;;13.30;;
57313;SDS011;53202;50.976;18.216;2024-01-07T00:32:19;16.40;;;10.90;;
57313;SDS011;53202;50.976;18.216;2024-01-07T00:33:20;25.50;;;11.30;;
57313;SDS011;53202;50.976;18.216;2024-01-07T00:34:21;21.10;;;12.20;;
57313;SDS011;53202;50.976;18.216;2024-01-07T00:35:22;20.00;;;11.70;;
57313;SDS011;53202;50.976;18.216;2024-01-07T00:36:23;25.20;;;13.60;;
57313;SDS011;53202;50.976;18.216;2024-01-07T00:37:24;23.50;;;13.10;;
57313;SDS011;53202;50.976;18.216;2024-01-07T00:38:25;26.50;;;14.30;;
57313;SDS011;53202;50.976;18.216;2024-01-07T00:39:26;24.30;;;12.20;;
57313;SDS011;53202;50.976;18.216;2024-01-07T00:40:27;22.30;;;12.40;;
57313;SDS011;53202;50.976;18.216;2024-01-07T00:41:28;23.50;;;13.20;;
57313;SDS011;53202;50.976;18.216;2024-01-07T00:42:30;21.60;;;11.70;;
57313;SDS011;53202;50.976;18.216;2024-01-07T00:43:31;26.90;;;13.80;;
57313;SDS011;53202;50.976;18.216;2024-01-07T00:44:32;23.00;;;13.10;;
57313;SDS011;53202;50.976;18.216;2024-01-07T00:45:33;20.80;;;12.60;;
57313;SDS011;53202;50.976;18.216;2024-01-07T00:46:34;21.60;;;12.50;;
57313;SDS011;53202;50.976;18.216;2024-01-07T00:47:35;22.60;;;13.10;;
57313;SDS011;53202;50.976;18.216;2024-01-07T00:48:36;22.00;;;13.10;;
57313;SDS011;53202;50.976;18.216;2024-01-07T00:49:37;20.30;;;11.90;;
57313;SDS011;53202;50.976;18.216;2024-01-07T00:50:40;24.60;;;14.40;;
57313;SDS011;53202;50.976;18.216;2024-01-07T00:51:41;19.10;;;12.40;;
57313;SDS011;53202;50.976;18.216;2024-01-07T00:52:42;19.70;;;13.20;;
57313;SDS011;53202;50.976;18.216;2024-01-07T00:53:43;24.60;;;12.50;;
57313;SDS011;53202;50.976;18.216;2024-01-07T00:54:44;21.20;;;12.20;;
57313;SDS011;53202;50.976;18.216;2024-01-07T00:55:45;20.30;;;12.50;;
57313;SDS011;53202;50.976;18.216;2024-01-07T00:56:46;23.50;;;11.80;;
57313;SDS011;53202;50.976;18.216;2024-01-07T00:57:47;24.50;;;12.80;;
57313;SDS011;53202;50.976;18.216;2024-01-07T00:58:48;16.50;;;11.70;;
57313;SDS011;53202;50.976;18.216;2024-01-07T00:59:49;22.80;;;13.70;;
57313;SDS011;53202;50.976;18.216;2024-01-07T01:00:51;23.20;;;12.30;;
57313;SDS011;53202;50.976;18.216;2024-01-07T01:01:54;16.10;;;10.40;;
57313;SDS011;53202;50.976;18.216;2024-01-07T01:02:55;19.90;;;11.20;;
57313;SDS011;53202;50.976;18.216;2024-01-07T01:03:56;21.00;;;11.00;;
57313;SDS011;53202;50.976;18.216;2024-01-07T01:04:58;19.30;;;11.20;;
57313;SDS011;53202;50.976;18.216;2024-01-07T01:05:59;17.90;;;10.80;;
57313;SDS011;53202;50.976;18.216;2024-01-07T01:07:00;20.60;;;11.00;;
57313;SDS011;53202;50.976;18.216;2024-01-07T01:08:01;21.40;;;11.10;;
57313;SDS011;53202;50.976;18.216;2024-01-07T01:09:02;18.10;;;11.10;;
57313;SDS011;53202;50.976;18.216;2024-01-07T01:10:03;22.50;;;11.30;;
57313;SDS011;53202;50.976;18.216;2024-01-07T01:11:05;22.00;;;11.90;;
57313;SDS011;53202;50.976;18.216;2024-01-07T01:12:06;16.30;;;9.70;;
57313;SDS011;53202;50.976;18.216;2024-01-07T01:13:07;18.40;;;11.30;;
57313;SDS011;53202;50.976;18.216;2024-01-07T01:14:08;19.30;;;11.40;;
57313;SDS011;53202;50.976;18.216;2024-01-07T01:15:09;16.00;;;10.00;;
57313;SDS011;53202;50.976;18.216;2024-01-07T01:16:10;19.70;;;11.90;;
57313;SDS011;53202;50.976;18.216;2024-01-07T01:17:11;22.80;;;12.30;;
57313;SDS011;53202;50.976;18.216;2024-01-07T01:18:12;16.60;;;10.80;;
57313;SDS011;53202;50.976;18.216;2024-01-07T01:19:13;22.50;;;11.90;;
57313;SDS011;53202;50.976;18.216;2024-01-07T01:20:14;25.00;;;11.70;;
57313;SDS011;53202;50.976;18.216;2024-01-07T01:21:15;19.10;;;10.70;;
57313;SDS011;53202;50.976;18.216;2024-01-07T01:22:15;18.90;;;11.00;;
57313;SDS011;53202;50.976;18.216;2024-01-07T01:23:17;17.70;;;9.80;;
57313;SDS011;53202;50.976;18.216;2024-01-07T01:24:17;19.20;;;10.40;;
57313;SDS011;53202;50.976;18.216;2024-01-07T01:25:18;15.40;;;9.70;;
57313;SDS011;53202;50.976;18.216;2024-01-07T01:26:19;14.00;;;9.70;;
57313;SDS011;53202;50.976;18.216;2024-01-07T01:27:20;14.80;;;9.90;;
57313;SDS011;53202;50.976;18.216;2024-01-07T01:28:21;16.60;;;9.80;;
57313;SDS011;53202;50.976;18.216;2024-01-07T01:29:22;12.80;;;9.00;;
57313;SDS011;53202;50.976;18.216;2024-01-07T01:30:23;19.80;;;10.30;;
57313;SDS011;53202;50.976;18.216;2024-01-07T01:31:24;15.70;;;9.00;;
57313;SDS011;53202;50.976;18.216;2024-01-07T01:32:25;15.20;;;9.70;;
57313;SDS011;53202;50.976;18.216;2024-01-07T01:33:26;15.60;;;8.60;;
57313;SDS011;53202;50.976;18.216;2024-01-07T01:34:27;15.50;;;8.80;;
57313;SDS011;53202;50.976;18.216;2024-01-07T01:35:28;18.40;;;9.80;;
57313;SDS011;53202;50.976;18.216;2024-01-07T01:36:30;13.20;;;8.20;;
57313;SDS011;53202;50.976;18.216;2024-01-07T01:37:32;16.50;;;10.20;;
57313;SDS011;53202;50.976;18.216;2024-01-07T01:38:33;19.20;;;9.60;;
57313;SDS011;53202;50.976;18.216;2024-01-07T01:39:34;20.70;;;10.80;;
57313;SDS011;53202;50.976;18.216;2024-01-07T01:40:35;23.50;;;10.20;;
57313;SDS011;53202;50.976;18.216;2024-01-07T01:41:36;16.40;;;8.90;;
57313;SDS011;53202;50.976;18.216;2024-01-07T01:42:36;16.70;;;9.50;;
57313;SDS011;53202;50.976;18.216;2024-01-07T01:43:38;19.90;;;10.60;;
57313;SDS011;53202;50.976;18.216;2024-01-07T01:44:38;20.30;;;10.00;;
57313;SDS011;53202;50.976;18.216;2024-01-07T01:45:39;16.20;;;9.60;;
57313;SDS011;53202;50.976;18.216;2024-01-07T01:46:40;25.10;;;11.90;;
57313;SDS011;53202;50.976;18.216;2024-01-07T01:47:41;17.90;;;10.40;;
57313;SDS011;53202;50.976;18.216;2024-01-07T01:48:42;19.40;;;10.40;;
57313;SDS011;53202;50.976;18.216;2024-01-07T01:49:44;16.40;;;9.30;;
57313;SDS011;53202;50.976;18.216;2024-01-07T01:50:46;19.40;;;10.60;;
57313;SDS011;53202;50.976;18.216;2024-01-07T01:51:48;15.90;;;9.70;;
57313;SDS011;53202;50.976;18.216;2024-01-07T01:52:50;21.90;;;9.20;;
57313;SDS011;53202;50.976;18.216;2024-01-07T01:53:52;18.70;;;10.20;;
57313;SDS011;53202;50.976;18.216;2024-01-07T01:54:54;16.50;;;10.10;;
57313;SDS011;53202;50.976;18.216;2024-01-07T01:55:56;20.50;;;10.50;;
57313;SDS011;53202;50.976;18.216;2024-01-07T01:56:58;16.30;;;10.60;;
57313;SDS011;53202;50.976;18.216;2024-01-07T01:57:59;21.80;;;11.10;;
57313;SDS011;53202;50.976;18.216;2024-01-07T01:59:04;23.40;;;11.60;;
57313;SDS011;53202;50.976;18.216;2024-01-07T02:00:05;22.00;;;11.60;;
57313;SDS011;53202;50.976;18.216;2024-01-07T02:01:07;20.10;;;11.10;;
57313;SDS011;53202;50.976;18.216;2024-01-07T02:02:08;22.70;;;12.30;;
57313;SDS011;53202;50.976;18.216;2024-01-07T02:03:09;23.70;;;12.90;;
57313;SDS011;53202;50.976;18.216;2024-01-07T02:04:10;18.80;;;11.10;;
57313;SDS011;53202;50.976;18.216;2024-01-07T02:05:11;16.80;;;10.70;;
57313;SDS011;53202;50.976;18.216;2024-01-07T02:06:14;14.60;;;9.80;;
57313;SDS011;53202;50.976;18.216;2024-01-07T02:07:16;20.70;;;10.80;;
57313;SDS011;53202;50.976;18.216;2024-01-07T02:08:17;22.70;;;10.90;;
57313;SDS011;53202;50.976;18.216;2024-01-07T02:09:19;18.00;;;10.80;;
57313;SDS011;53202;50.976;18.216;2024-01-07T02:10:20;19.70;;;11.00;;
57313;SDS011;53202;50.976;18.216;2024-01-07T02:11:22;23.50;;;11.30;;
57313;SDS011;53202;50.976;18.216;2024-01-07T02:12:23;18.40;;;10.30;;
57313;SDS011;53202;50.976;18.216;2024-01-07T02:13:24;18.20;;;10.40;;
57313;SDS011;53202;50.976;18.216;2024-01-07T02:14:25;15.60;;;9.50;;
57313;SDS011;53202;50.976;18.216;2024-01-07T02:15:26;16.80;;;10.30;;
57313;SDS011;53202;50.976;18.216;2024-01-07T02:16:27;17.10;;;10.00;;
57313;SDS011;53202;50.976;18.216;2024-01-07T02:17:28;16.00;;;9.70;;
57313;SDS011;53202;50.976;18.216;2024-01-07T02:18:29;19.30;;;10.80;;
57313;SDS011;53202;50.976;18.216;2024-01-07T02:19:30;20.30;;;10.90;;
57313;SDS011;53202;50.976;18.216;2024-01-07T02:20:31;22.90;;;11.80;;
57313;SDS011;53202;50.976;18.216;2024-01-07T02:21:32;21.80;;;10.60;;
57313;SDS011;53202;50.976;18.216;2024-01-07T02:22:33;18.40;;;10.10;;
57313;SDS011;53202;50.976;18.216;2024-01-07T02:23:34;19.10;;;10.80;;
57313;SDS011;53202;50.976;18.216;2024-01-07T02:24:35;14.90;;;9.90;;
57313;SDS011;53202;50.976;18.216;2024-01-07T02:25:36;18.70;;;10.30;;
57313;SDS011;53202;50.976;18.216;2024-01-07T02:26:37;17.20;;;10.20;;
57313;SDS011;53202;50.976;18.216;2024-01-07T02:27:38;19.10;;;10.80;;
57313;SDS011;53202;50.976;18.216;2024-01-07T02:28:39;17.40;;;10.40;;
57313;SDS011;53202;50.976;18.216;2024-01-07T02:29:40;21.00;;;11.00;;
57313;SDS011;53202;50.976;18.216;2024-01-07T02:30:41;17.30;;;9.70;;
57313;SDS011;53202;50.976;18.216;2024-01-07T02:31:42;23.30;;;11.40;;
57313;SDS011;53202;50.976;18.216;2024-01-07T02:32:43;17.40;;;11.50;;
57313;SDS011;53202;50.976;18.216;2024-01-07T02:33:44;25.80;;;11.50;;
57313;SDS011;53202;50.976;18.216;2024-01-07T02:34:45;16.30;;;10.20;;
57313;SDS011;53202;50.976;18.216;2024-01-07T02:35:47;17.80;;;11.00;;
57313;SDS011;53202;50.976;18.216;2024-01-07T02:36:48;19.70;;;10.90;;
57313;SDS011;53202;50.976;18.216;2024-01-07T02:37:49;16.70;;;9.70;;
57313;SDS011;53202;50.976;18.216;2024-01-07T02:38:50;19.40;;;10.80;;
57313;SDS011;53202;50.976;18.216;2024-01-07T02:39:51;18.40;;;10.00;;
57313;SDS011;53202;50.976;18.216;2024-01-07T02:40:52;16.70;;;11.10;;
57313;SDS011;53202;50.976;18.216;2024-01-07T02:41:53;25.30;;;11.70;;
57313;SDS011;53202;50.976;18.216;2024-01-07T02:42:54;16.70;;;10.50;;
57313;SDS011;53202;50.976;18.216;2024-01-07T02:43:56;19.80;;;11.40;;
57313;SDS011;53202;50.976;18.216;2024-01-07T02:44:57;17.40;;;10.20;;
57313;SDS011;53202;50.976;18.216;2024-01-07T02:45:58;25.20;;;11.80;;
57313;SDS011;53202;50.976;18.216;2024-01-07T02:46:59;20.20;;;11.00;;
57313;SDS011;53202;50.976;18.216;2024-01-07T02:48:00;18.00;;;11.80;;
57313;SDS011;53202;50.976;18.216;2024-01-07T02:49:01;18.40;;;11.20;;
57313;SDS011;53202;50.976;18.216;2024-01-07T02:50:02;25.20;;;12.20;;
57313;SDS011;53202;50.976;18.216;2024-01-07T02:51:03;19.10;;;11.90;;
57313;SDS011;53202;50.976;18.216;2024-01-07T02:52:05;19.90;;;10.90;;
57313;SDS011;53202;50.976;18.216;2024-01-07T02:53:06;22.30;;;12.10;;
57313;SDS011;53202;50.976;18.216;2024-01-07T02:54:08;20.60;;;11.50;;
57313;SDS011;53202;50.976;18.216;2024-01-07T02:55:09;18.90;;;11.00;;
57313;SDS011;53202;50.976;18.216;2024-01-07T02:56:10;18.90;;;12.10;;
57313;SDS011;53202;50.976;18.216;2024-01-07T02:57:11;22.50;;;12.70;;
57313;SDS011;53202;50.976;18.216;2024-01-07T02:58:12;22.50;;;12.50;;
57313;SDS011;53202;50.976;18.216;2024-01-07T02:59:13;28.00;;;12.70;;
57313;SDS011;53202;50.976;18.216;2024-01-07T03:00:14;18.60;;;11.60;;
57313;SDS011;53202;50.976;18.216;2024-01-07T03:01:16;23.20;;;12.80;;
57313;SDS011;53202;50.976;18.216;2024-01-07T03:02:16;20.70;;;11.90;;
57313;SDS011;53202;50.976;18.216;2024-01-07T03:03:17;22.00;;;12.40;;
57313;SDS011;53202;50.976;18.216;2024-01-07T03:04:18;25.10;;;12.40;;
57313;SDS011;53202;50.976;18.216;2024-01-07T03:05:19;19.50;;;12.40;;
57313;SDS011;53202;50.976;18.216;2024-01-07T03:06:20;16.20;;;11.70;;
57313;SDS011;53202;50.976;18.216;2024-01-07T03:07:21;19.60;;;12.40;;
57313;SDS011;53202;50.976;18.216;2024-01-07T03:08:22;21.20;;;12.20;;
57313;SDS011;53202;50.976;18.216;2024-01-07T03:09:23;23.60;;;12.30;;
57313;SDS011;53202;50.976;18.216;2024-01-07T03:10:24;16.10;;;11.90;;
57313;SDS011;53202;50.976;18.216;2024-01-07T03:11:25;20.30;;;11.90;;
57313;SDS011;53202;50.976;18.216;2024-01-07T03:12:26;25.50;;;12.80;;
57313;SDS011;53202;50.976;18.216;2024-01-07T03:13:27;20.70;;;13.50;;
57313;SDS011;53202;50.976;18.216;2024-01-07T03:14:28;19.60;;;12.00;;
57313;SDS011;53202;50.976;18.216;2024-01-07T03:15:30;20.50;;;11.80;;
57313;SDS011;53202;50.976;18.216;2024-01-07T03:16:30;22.90;;;12.30;;
57313;SDS011;53202;50.976;18.216;2024-01-07T03:17:31;23.20;;;13.30;;
57313;SDS011;53202;50.976;18.216;2024-01-07T03:18:33;18.10;;;12.50;;
57313;SDS011;53202;50.976;18.216;2024-01-07T03:19:34;21.90;;;12.50;;
57313;SDS011;53202;50.976;18.216;2024-01-07T03:20:35;19.40;;;13.40;;
57313;SDS011;53202;50.976;18.216;2024-01-07T03:21:36;24.00;;;12.10;;
57313;SDS011;53202;50.976;18.216;2024-01-07T03:22:36;22.90;;;13.20;;
57313;SDS011;53202;50.976;18.216;2024-01-07T03:23:37;24.10;;;12.50;;
57313;SDS011;53202;50.976;18.216;2024-01-07T03:24:38;20.30;;;12.30;;
57313;SDS011;53202;50.976;18.216;2024-01-07T03:25:39;24.00;;;14.90;;
57313;SDS011;53202;50.976;18.216;2024-01-07T03:26:40;22.20;;;13.00;;
57313;SDS011;53202;50.976;18.216;2024-01-07T03:27:41;23.80;;;13.70;;
57313;SDS011;53202;50.976;18.216;2024-01-07T03:28:42;26.20;;;15.20;;
57313;SDS011;53202;50.976;18.216;2024-01-07T03:29:43;25.00;;;14.40;;
57313;SDS011;53202;50.976;18.216;2024-01-07T03:30:44;24.60;;;15.30;;
57313;SDS011;53202;50.976;18.216;2024-01-07T03:31:45;30.70;;;17.80;;
57313;SDS011;53202;50.976;18.216;2024-01-07T03:32:46;35.30;;;18.50;;
57313;SDS011;53202;50.976;18.216;2024-01-07T03:33:47;31.20;;;17.60;;
57313;SDS011;53202;50.976;18.216;2024-01-07T03:34:48;31.40;;;16.90;;
57313;SDS011;53202;50.976;18.216;2024-01-07T03:35:49;26.90;;;17.00;;
57313;SDS011;53202;50.976;18.216;2024-01-07T03:36:50;24.50;;;15.50;;
57313;SDS011;53202;50.976;18.216;2024-01-07T03:37:51;25.50;;;16.10;;
57313;SDS011;53202;50.976;18.216;2024-01-07T03:38:51;28.30;;;17.50;;
57313;SDS011;53202;50.976;18.216;2024-01-07T03:39:54;33.40;;;18.10;;
57313;SDS011;53202;50.976;18.216;2024-01-07T03:40:55;29.00;;;18.70;;
57313;SDS011;53202;50.976;18.216;2024-01-07T03:41:56;33.80;;;20.20;;
57313;SDS011;53202;50.976;18.216;2024-01-07T03:42:57;29.30;;;17.30;;
57313;SDS011;53202;50.976;18.216;2024-01-07T03:43:58;34.00;;;18.20;;
57313;SDS011;53202;50.976;18.216;2024-01-07T03:44:59;32.10;;;20.60;;
57313;SDS011;53202;50.976;18.216;2024-01-07T03:46:00;32.80;;;16.10;;
57313;SDS011;53202;50.976;18.216;2024-01-07T03:47:00;27.10;;;16.50;;
57313;SDS011;53202;50.976;18.216;2024-01-07T03:48:02;26.50;;;17.10;;
57313;SDS011;53202;50.976;18.216;2024-01-07T03:49:03;26.90;;;16.70;;
57313;SDS011;53202;50.976;18.216;2024-01-07T03:50:04;29.00;;;15.60;;
57313;SDS011;53202;50.976;18.216;2024-01-07T03:51:05;26.80;;;15.40;;
57313;SDS011;53202;50.976;18.216;2024-01-07T03:52:06;29.00;;;15.50;;
57313;SDS011;53202;50.976;18.216;2024-01-07T03:53:07;26.20;;;15.50;;
57313;SDS011;53202;50.976;18.216;2024-01-07T03:54:09;25.80;;;15.60;;
57313;SDS011;53202;50.976;18.216;2024-01-07T03:55:09;22.80;;;14.70;;
57313;SDS011;53202;50.976;18.216;2024-01-07T03:56:11;26.20;;;16.00;;
57313;SDS011;53202;50.976;18.216;2024-01-07T03:57:12;25.30;;;14.90;;
57313;SDS011;53202;50.976;18.216;2024-01-07T03:58:13;23.40;;;15.30;;
57313;SDS011;53202;50.976;18.216;2024-01-07T03:59:14;25.40;;;15.10;;
57313;SDS011;53202;50.976;18.216;2024-01-07T04:00:15;26.00;;;15.80;;
57313;SDS011;53202;50.976;18.216;2024-01-07T04:01:17;32.10;;;15.90;;
57313;SDS011;53202;50.976;18.216;2024-01-07T04:02:18;22.50;;;16.10;;
57313;SDS011;53202;50.976;18.216;2024-01-07T04:03:19;23.70;;;14.00;;
57313;SDS011;53202;50.976;18.216;2024-01-07T04:04:20;42.30;;;17.00;;
57313;SDS011;53202;50.976;18.216;2024-01-07T04:05:21;26.10;;;15.50;;
57313;SDS011;53202;50.976;18.216;2024-01-07T04:06:22;29.60;;;17.10;;
57313;SDS011;53202;50.976;18.216;2024-01-07T04:07:23;26.60;;;15.90;;
57313;SDS011;53202;50.976;18.216;2024-01-07T04:08:23;31.90;;;17.10;;
57313;SDS011;53202;50.976;18.216;2024-01-07T04:09:24;23.90;;;16.70;;
57313;SDS011;53202;50.976;18.216;2024-01-07T04:10:25;28.40;;;15.90;;
57313;SDS011;53202;50.976;18.216;2024-01-07T04:11:26;25.50;;;15.80;;
57313;SDS011;53202;50.976;18.216;2024-01-07T04:12:27;24.20;;;16.20;;
57313;SDS011;53202;50.976;18.216;2024-01-07T04:13:28;26.90;;;16.50;;
57313;SDS011;53202;50.976;18.216;2024-01-07T04:14:29;31.50;;;17.90;;
57313;SDS011;53202;50.976;18.216;2024-01-07T04:15:33;29.30;;;16.70;;
57313;SDS011;53202;50.976;18.216;2024-01-07T04:16:35;22.30;;;14.70;;
57313;SDS011;53202;50.976;18.216;2024-01-07T04:17:36;26.70;;;15.00;;
57313;SDS011;53202;50.976;18.216;2024-01-07T04:18:36;30.00;;;16.40;;
57313;SDS011;53202;50.976;18.216;2024-01-07T04:19:38;31.30;;;17.50;;
57313;SDS011;53202;50.976;18.216;2024-01-07T04:20:39;27.10;;;17.80;;
57313;SDS011;53202;50.976;18.216;2024-01-07T04:21:45;30.20;;;17.30;;
57313;SDS011;53202;50.976;18.216;2024-01-07T04:22:46;30.20;;;16.80;;
57313;SDS011;53202;50.976;18.216;2024-01-07T04:23:47;31.10;;;16.40;;
57313;SDS011;53202;50.976;18.216;2024-01-07T04:24:49;30.60;;;17.60;;
57313;SDS011;53202;50.976;18.216;2024-01-07T04:25:50;29.90;;;17.80;;
57313;SDS011;53202;50.976;18.216;2024-01-07T04:26:51;26.80;;;17.10;;
57313;SDS011;53202;50.976;18.216;2024-01-07T04:27:52;26.40;;;15.90;;
57313;SDS011;53202;50.976;18.216;2024-01-07T04:28:53;30.10;;;17.30;;
57313;SDS011;53202;50.976;18.216;2024-01-07T04:29:54;24.80;;;15.40;;
57313;SDS011;53202;50.976;18.216;2024-01-07T04:30:55;23.60;;;16.00;;
57313;SDS011;53202;50.976;18.216;2024-01-07T04:31:56;35.10;;;17.20;;
57313;SDS011;53202;50.976;18.216;2024-01-07T04:32:57;33.50;;;18.50;;
57313;SDS011;53202;50.976;18.216;2024-01-07T04:33:58;27.20;;;16.80;;
57313;SDS011;53202;50.976;18.216;2024-01-07T04:34:59;28.80;;;17.50;;
57313;SDS011;53202;50.976;18.216;2024-01-07T04:35:59;30.90;;;16.40;;
57313;SDS011;53202;50.976;18.216;2024-01-07T04:37:01;25.60;;;17.40;;
57313;SDS011;53202;50.976;18.216;2024-01-07T04:38:02;30.90;;;17.20;;
57313;SDS011;53202;50.976;18.216;2024-01-07T04:39:04;25.10;;;17.50;;
57313;SDS011;53202;50.976;18.216;2024-01-07T04:40:05;32.70;;;16.60;;
57313;SDS011;53202;50.976;18.216;2024-01-07T04:41:06;24.50;;;15.50;;
57313;SDS011;53202;50.976;18.216;2024-01-07T04:42:07;25.60;;;17.20;;
57313;SDS011;53202;50.976;18.216;2024-01-07T04:43:08;33.80;;;17.60;;
57313;SDS011;53202;50.976;18.216;2024-01-07T04:44:09;23.40;;;14.70;;
57313;SDS011;53202;50.976;18.216;2024-01-07T04:45:10;24.30;;;15.90;;
57313;SDS011;53202;50.976;18.216;2024-01-07T04:46:11;25.60;;;16.40;;
57313;SDS011;53202;50.976;18.216;2024-01-07T04:47:24;21.60;;;15.70;;
57313;SDS011;53202;50.976;18.216;2024-01-07T04:48:28;31.80;;;16.60;;
57313;SDS011;53202;50.976;18.216;2024-01-07T04:49:29;35.40;;;16.50;;
57313;SDS011;53202;50.976;18.216;2024-01-07T04:50:30;25.10;;;16.60;;
57313;SDS011;53202;50.976;18.216;2024-01-07T04:51:31;26.50;;;15.50;;
57313;SDS011;53202;50.976;18.216;2024-01-07T04:52:32;27.00;;;15.60;;
57313;SDS011;53202;50.976;18.216;2024-01-07T04:53:33;22.80;;;16.00;;
57313;SDS011;53202;50.976;18.216;2024-01-07T04:54:34;26.70;;;16.30;;
57313;SDS011;53202;50.976;18.216;2024-01-07T04:55:35;27.50;;;16.50;;
57313;SDS011;53202;50.976;18.216;2024-01-07T04:56:36;27.20;;;17.00;;
57313;SDS011;53202;50.976;18.216;2024-01-07T04:57:38;25.20;;;16.70;;
57313;SDS011;53202;50.976;18.216;2024-01-07T04:58:39;23.10;;;15.20;;
57313;SDS011;53202;50.976;18.216;2024-01-07T04:59:40;23.40;;;15.20;;
57313;SDS011;53202;50.976;18.216;2024-01-07T05:00:41;25.30;;;15.20;;
57313;SDS011;53202;50.976;18.216;2024-01-07T05:01:42;24.90;;;15.20;;
57313;SDS011;53202;50.976;18.216;2024-01-07T05:02:43;24.40;;;14.30;;
57313;SDS011;53202;50.976;18.216;2024-01-07T05:03:44;23.60;;;15.80;;
57313;SDS011;53202;50.976;18.216;2024-01-07T05:04:45;26.80;;;16.60;;
57313;SDS011;53202;50.976;18.216;2024-01-07T05:05:46;22.20;;;14.20;;
57313;SDS011;53202;50.976;18.216;2024-01-07T05:06:47;22.70;;;14.50;;
57313;SDS011;53202;50.976;18.216;2024-01-07T05:07:48;24.40;;;14.10;;
57313;SDS011;53202;50.976;18.216;2024-01-07T05:08:49;24.20;;;14.60;;
57313;SDS011;53202;50.976;18.216;2024-01-07T05:09:50;23.50;;;14.70;;
57313;SDS011;53202;50.976;18.216;2024-01-07T05:10:51;23.30;;;14.50;;
57313;SDS011;53202;50.976;18.216;2024-01-07T05:11:52;24.40;;;14.70;;
57313;SDS011;53202;50.976;18.216;2024-01-07T05:12:53;25.10;;;15.20;;
57313;SDS011;53202;50.976;18.216;2024-01-07T05:13:55;24.10;;;14.50;;
57313;SDS011;53202;50.976;18.216;2024-01-07T05:14:55;20.80;;;14.40;;
57313;SDS011;53202;50.976;18.216;2024-01-07T05:15:56;23.70;;;15.30;;
57313;SDS011;53202;50.976;18.216;2024-01-07T05:16:57;20.80;;;13.20;;
57313;SDS011;53202;50.976;18.216;2024-01-07T05:17:59;22.60;;;14.00;;
57313;SDS011;53202;50.976;18.216;2024-01-07T05:19:01;21.20;;;13.00;;
57313;SDS011;53202;50.976;18.216;2024-01-07T05:20:02;27.00;;;14.60;;
57313;SDS011;53202;50.976;18.216;2024-01-07T05:21:05;24.30;;;14.30;;
57313;SDS011;53202;50.976;18.216;2024-01-07T05:22:06;29.20;;;15.40;;
57313;SDS011;53202;50.976;18.216;2024-01-07T05:23:07;21.40;;;14.40;;
57313;SDS011;53202;50.976;18.216;2024-01-07T05:24:08;23.70;;;13.00;;
57313;SDS011;53202;50.976;18.216;2024-01-07T05:25:09;21.70;;;14.10;;
57313;SDS011;53202;50.976;18.216;2024-01-07T05:26:10;21.20;;;13.30;;
57313;SDS011;53202;50.976;18.216;2024-01-07T05:27:11;24.40;;;14.20;;
57313;SDS011;53202;50.976;18.216;2024-01-07T05:28:12;19.50;;;14.00;;
57313;SDS011;53202;50.976;18.216;2024-01-07T05:29:14;21.70;;;13.50;;
57313;SDS011;53202;50.976;18.216;2024-01-07T05:30:15;23.10;;;13.70;;
57313;SDS011;53202;50.976;18.216;2024-01-07T05:31:16;18.10;;;13.20;;
57313;SDS011;53202;50.976;18.216;2024-01-07T05:32:18;23.20;;;14.80;;
57313;SDS011;53202;50.976;18.216;2024-01-07T05:33:19;22.60;;;13.90;;
57313;SDS011;53202;50.976;18.216;2024-01-07T05:34:20;20.70;;;13.10;;
57313;SDS011;53202;50.976;18.216;2024-01-07T05:35:21;23.00;;;13.10;;
57313;SDS011;53202;50.976;18.216;2024-01-07T05:36:22;20.70;;;13.40;;
57313;SDS011;53202;50.976;18.216;2024-01-07T05:37:23;20.90;;;13.90;;
57313;SDS011;53202;50.976;18.216;2024-01-07T05:38:24;28.20;;;14.00;;
57313;SDS011;53202;50.976;18.216;2024-01-07T05:39:25;20.90;;;12.60;;
57313;SDS011;53202;50.976;18.216;2024-01-07T05:40:25;20.90;;;13.60;;
57313;SDS011;53202;50.976;18.216;2024-01-07T05:41:26;23.00;;;13.30;;
57313;SDS011;53202;50.976;18.216;2024-01-07T05:42:27;22.50;;;14.30;;
57313;SDS011;53202;50.976;18.216;2024-01-07T05:43:28;20.30;;;13.20;;
57313;SDS011;53202;50.976;18.216;2024-01-07T05:44:29;20.40;;;12.20;;
57313;SDS011;53202;50.976;18.216;2024-01-07T05:45:30;29.70;;;14.00;;
57313;SDS011;53202;50.976;18.216;2024-01-07T05:46:31;23.00;;;13.90;;
57313;SDS011;53202;50.976;18.216;2024-01-07T05:47:32;21.80;;;14.70;;
57313;SDS011;53202;50.976;18.216;2024-01-07T05:48:41;23.00;;;13.60;;
57313;SDS011;53202;50.976;18.216;2024-01-07T05:49:44;17.60;;;12.30;;
57313;SDS011;53202;50.976;18.216;2024-01-07T05:50:45;21.00;;;12.40;;
57313;SDS011;53202;50.976;18.216;2024-01-07T05:51:46;23.80;;;13.40;;
57313;SDS011;53202;50.976;18.216;2024-01-07T05:52:47;22.10;;;13.00;;
57313;SDS011;53202;50.976;18.216;2024-01-07T05:53:48;23.20;;;14.10;;